Aérodrome :
LOGIN :

S'inscrire | Disclaimer

   EN    FR    IT 

 










Légende :    VFR   VFR Marginal   IFR   IFR Intensif   IFR Très Intensif
Visi : 
Plafond : 
>= 8 km
>= 3000ft
5 à 8 km
1000 à 3000 ft
1500m à 5 km
500 à 1000 ft
800 à 1500m
200 à 500 ft
< 800m
< 200 ft
Symboles :   Orages  Brouillard  Fortes neiges  Fortes précipitations  Vent > 20 kt
SIGMETs :   Divers  Orages  Givrage  Turbulence  Onde Orograph.  Cendres Volcan.






- Altitude de l'aérodrome : 63 ft
- Code IATA : BZM


EHWO - Woensdrecht Airbase

DERNIER METAR :
  • 150655Z AUTO 24017KT 9999 FEW037 07/03 Q0994 BLU

METARs EXPIRÉS :
  • 150625Z AUTO 24019KT 200V270 9999 FEW029 SCT034 08/04 Q0993 BLU
  • 150555Z AUTO 23013KT 9999 SCT030 BKN035 BKN041 08/05 Q0992 BLU
  • 150525Z AUTO 23016G26KT 9999 FEW023 SCT052 OVC093 09/05 Q0991 BLU
  • 150455Z AUTO 24020KT 220V280 9999 BKN074 OVC080 09/06 Q0991 BLU
  • 150429Z AUTO 23017KT 210V270 9999 FEW078 BKN083 BKN090 09/06 Q0990 BLU
  • 150425Z AUTO 23017KT 9999 FEW015CB BKN082 OVC088 09/06 Q0990 BLU

Prévision TAF périmée.



MET'MAP, la Météo Aéronautique d'un coup d'oeil ! - Copyright ORBIFLY Décembre 2007 - Disclaimer

ORBIFLY MET'MAP TEAM :

Programmation & Développement : Alexandra Zaïnal
Sur une idée originale de : Baudouin d'Aumeries
Assistance à la programmation : Marc-Olivier Méhu
Soutien technique & logistique : Manuel Goepfert

Contact : metmap@orbifly.com




SOURCES & CREDITS :

   NOAA